Terminal Aerodrome Forecast
Issued by NWS

Home | Current Version | Previous Version | Text Only | Print | Product List | Glossary Off
Versions: 1 2 3 4 5 6 7 8 9 10 11 12 13 14 15 16 17 18 19 20 21

000
FTUS43 KMPX 262300
TAFRWF
TAF
KRWF 262331Z 2700/2724 33013KT P6SM SCT018 OVC070
     FM270300 32011KT P6SM BKN100
     FM270600 32007KT P6SM SKC
     FM271500 VRB03KT P6SM SCT200
     FM272000 14007KT P6SM BKN150=

USA.gov is the U.S. government's official web portal to all federal, state and local government web resources and services.